Time;durP1;ratioP1;P1;durP2;ratioP2;P2;SDS_P1;SDS_P2;PMS_P1;PMS_P2;Temp;Humidity;BMP_temperature;BMP_pressure;BME280_temperature;BME280_humidity;BME280_pressure;Samples;Min_cycle;Max_cycle;Signal;HPM_P1;HPM_P2
2023/01/15 00:00:59;;;;;;;6.70;3.63;;;8.40;1.00;;;;;;5028512;28;20454;-84
2023/01/15 00:03:26;;;;;;;2.87;2.30;;;8.30;1.00;;;;;;5020451;28;20220;-84
2023/01/15 00:05:54;;;;;;;2.60;2.40;;;8.30;1.00;;;;;;5019343;28;20452;-85
2023/01/15 00:08:21;;;;;;;2.03;1.77;;;8.40;1.00;;;;;;5019237;28;20828;-84
2023/01/15 00:10:48;;;;;;;2.20;1.63;;;8.40;1.00;;;;;;5019973;28;20529;-84
2023/01/15 00:13:15;;;;;;;2.30;2.10;;;8.40;99.90;;;;;;5029679;28;20464;-84
2023/01/15 00:15:42;;;;;;;2.40;2.20;;;8.40;99.90;;;;;;5029694;28;20235;-83
2023/01/15 00:18:09;;;;;;;4.13;2.20;;;8.60;1.00;;;;;;5029730;28;20481;-84
2023/01/15 00:20:37;;;;;;;4.27;2.00;;;;;;;;;;5029980;28;20491;-84
2023/01/15 00:23:05;;;;;;;2.47;2.23;;;8.50;99.90;;;;;;5030901;28;20483;-85
2023/01/15 00:28:16;;;;;;;1.37;1.27;;;8.90;99.90;;;;;;5027449;28;20406;-84
2023/01/15 00:30:43;;;;;;;2.67;1.53;;;8.60;99.90;;;;;;5023988;28;20995;-84
2023/01/15 00:33:10;;;;;;;3.43;2.13;;;8.60;99.90;;;;;;5027804;28;20896;-85
2023/01/15 00:35:37;;;;;;;2.60;1.37;;;8.60;99.90;;;;;;5031144;28;20471;-84
2023/01/15 00:38:05;;;;;;;1.30;1.20;;;8.70;99.90;;;;;;5038196;28;20446;-85
2023/01/15 00:40:32;;;;;;;1.90;1.40;;;8.60;99.90;;;;;;5041341;28;20449;-85
2023/01/15 00:42:59;;;;;;;2.33;2.08;;;8.60;99.90;;;;;;5039492;28;20487;-84
2023/01/15 00:45:25;;;;;;;1.67;1.40;;;8.60;99.90;;;;;;5038085;28;20209;-84
2023/01/15 00:47:54;;;;;;;5.33;1.73;;;8.60;99.90;;;;;;5039657;28;20430;-84
2023/01/15 00:50:24;;;;;;;1.93;1.50;;;8.60;99.90;;;;;;5039646;28;20482;-84
2023/01/15 00:52:50;;;;;;;2.23;1.83;;;8.70;99.90;;;;;;5039007;28;20478;-85
2023/01/15 00:55:19;;;;;;;4.77;1.87;;;8.70;99.90;;;;;;5040055;28;20428;-84
2023/01/15 00:57:45;;;;;;;2.07;1.93;;;8.70;99.90;;;;;;5040347;28;20459;-83
2023/01/15 01:00:13;;;;;;;1.70;1.50;;;8.60;99.90;;;;;;5040258;28;20506;-84
2023/01/15 01:02:40;;;;;;;2.13;1.90;;;8.80;99.90;;;;;;5040508;28;20494;-85
2023/01/15 01:05:09;;;;;;;3.00;1.60;;;8.70;99.90;;;;;;5034345;28;20932;-84
2023/01/15 01:07:35;;;;;;;4.33;2.50;;;8.80;99.90;;;;;;5024991;28;20422;-86
2023/01/15 01:10:02;;;;;;;4.47;3.10;;;8.80;99.90;;;;;;5021485;28;20462;-85
2023/01/15 01:12:30;;;;;;;3.17;2.37;;;8.70;99.90;;;;;;5021707;28;20471;-85
2023/01/15 01:14:57;;;;;;;1.73;1.17;;;8.80;99.90;;;;;;5021068;28;20423;-85
2023/01/15 01:17:24;;;;;;;2.47;1.90;;;9.10;99.90;;;;;;5020903;28;20458;-85
2023/01/15 01:19:51;;;;;;;3.27;1.97;;;8.80;99.90;;;;;;5020842;28;20437;-85
2023/01/15 01:22:17;;;;;;;3.30;1.53;;;8.90;99.90;;;;;;5020743;28;20986;-85
2023/01/15 01:24:44;;;;;;;2.90;1.27;;;8.90;99.90;;;;;;5019918;28;20430;-85
2023/01/15 01:27:11;;;;;;;1.80;1.70;;;8.90;99.90;;;;;;5019313;28;20511;-84
2023/01/15 01:29:39;;;;;;;4.93;1.40;;;8.90;99.90;;;;;;5019374;28;20558;-85
2023/01/15 01:32:06;;;;;;;1.13;0.90;;;8.90;99.90;;;;;;5019307;28;20522;-84
2023/01/15 01:34:33;;;;;;;1.70;1.20;;;;;;;;;;5018760;28;20513;-85
2023/01/15 01:37:00;;;;;;;2.03;1.50;;;9.00;99.90;;;;;;5018847;28;20502;-85
2023/01/15 01:39:27;;;;;;;1.63;1.50;;;9.00;99.90;;;;;;5018804;28;20509;-83
2023/01/15 01:41:53;;;;;;;1.83;1.40;;;9.00;99.90;;;;;;5019353;28;20538;-85
2023/01/15 01:44:59;;;;;;;2.00;1.80;;;9.00;99.90;;;;;;5020942;28;20505;-84
2023/01/15 01:47:28;;;;;;;1.80;1.60;;;9.00;99.90;;;;;;5020861;28;20406;-84
2023/01/15 01:50:00;;;;;;;1.80;1.67;;;9.10;99.90;;;;;;5021083;28;20415;-84
2023/01/15 01:52:29;;;;;;;1.73;1.60;;;9.00;99.90;;;;;;5020841;28;21012;-84
2023/01/15 01:54:57;;;;;;;2.43;1.87;;;9.10;99.90;;;;;;5019534;28;20538;-85
2023/01/15 01:57:24;;;;;;;3.43;1.60;;;9.10;99.90;;;;;;5019656;28;20901;-85
2023/01/15 01:59:51;;;;;;;2.17;1.57;;;9.10;99.90;;;;;;5019460;28;20517;-85
2023/01/15 02:02:22;;;;;;;2.90;1.80;;;9.10;99.90;;;;;;5019867;28;20442;-84
2023/01/15 02:04:49;;;;;;;3.30;2.40;;;9.10;99.90;;;;;;5021810;28;20431;-84
2023/01/15 02:07:17;;;;;;;3.13;1.53;;;9.00;99.90;;;;;;5021814;28;20465;-84
2023/01/15 02:09:44;;;;;;;2.67;2.10;;;9.00;99.90;;;;;;5021036;28;20426;-84
2023/01/15 02:12:17;;;;;;;2.80;2.07;;;8.90;99.90;;;;;;5029230;28;20476;-84
2023/01/15 02:14:53;;;;;;;3.30;2.27;;;8.90;99.90;;;;;;5020396;28;20406;-84
2023/01/15 02:17:28;;;;;;;2.93;2.27;;;8.90;99.90;;;;;;5019647;28;20413;-84
2023/01/15 02:20:10;;;;;;;1.67;1.47;;;8.90;99.90;;;;;;5019928;28;20413;-84
2023/01/15 02:22:51;;;;;;;0.90;0.90;;;8.80;99.90;;;;;;5022739;28;20554;-83
2023/01/15 02:25:24;;;;;;;2.23;0.93;;;8.70;1.00;;;;;;5022341;28;20412;-84
2023/01/15 02:27:57;;;;;;;2.40;2.30;;;8.70;1.00;;;;;;5021995;28;20426;-83
2023/01/15 02:30:29;;;;;;;1.87;1.53;;;8.70;1.00;;;;;;5019562;28;20478;-84
2023/01/15 02:33:00;;;;;;;1.57;1.43;;;8.70;1.00;;;;;;5018421;28;20475;-84
2023/01/15 02:35:31;;;;;;;1.57;1.03;;;8.60;1.00;;;;;;5019620;28;20893;-84
2023/01/15 02:38:01;;;;;;;2.37;2.13;;;8.70;1.00;;;;;;5019785;28;20446;-84
2023/01/15 02:40:29;;;;;;;2.40;2.17;;;8.60;1.00;;;;;;5019272;28;20432;-84
2023/01/15 02:42:59;;;;;;;3.10;2.67;;;8.70;1.00;;;;;;5019286;28;20486;-84
2023/01/15 02:45:29;;;;;;;2.17;2.03;;;8.30;1.00;;;;;;5018714;28;20949;-84
2023/01/15 02:48:00;;;;;;;3.87;1.53;;;8.60;1.00;;;;;;5020487;28;20417;-85
2023/01/15 02:50:32;;;;;;;1.50;1.40;;;8.50;1.00;;;;;;5032014;28;20442;-84
2023/01/15 02:53:06;;;;;;;1.77;1.20;;;8.60;1.00;;;;;;5038270;28;20430;-84
2023/01/15 02:55:37;;;;;;;1.30;1.20;;;8.60;1.00;;;;;;5038765;28;20405;-84
2023/01/15 02:58:10;;;;;;;7.57;1.90;;;8.50;1.00;;;;;;5028583;28;20232;-84
2023/01/15 03:00:41;;;;;;;1.93;1.83;;;8.50;1.00;;;;;;5015500;28;20494;-84
2023/01/15 03:03:13;;;;;;;3.53;1.93;;;8.50;1.00;;;;;;5017032;28;20467;-84
2023/01/15 03:05:48;;;;;;;2.40;2.10;;;8.40;1.00;;;;;;5016710;28;20440;-84
2023/01/15 03:08:15;;;;;;;2.10;1.77;;;8.50;1.00;;;;;;5016453;28;20410;-84
2023/01/15 03:10:55;;;;;;;2.23;2.03;;;8.50;1.00;;;;;;5017745;28;20550;-84
2023/01/15 03:13:27;;;;;;;2.70;2.50;;;8.50;1.00;;;;;;5030283;28;20517;-83
2023/01/15 03:18:53;;;;;;;5.30;3.10;;;8.50;1.00;;;;;;5018807;28;20399;-84
2023/01/15 03:21:26;;;;;;;1.97;1.87;;;8.50;1.00;;;;;;5017652;28;20223;-84
2023/01/15 03:23:56;;;;;;;2.60;1.67;;;8.50;1.00;;;;;;5017968;28;20446;-84
2023/01/15 03:26:22;;;;;;;2.93;1.90;;;8.50;1.00;;;;;;5017875;28;20495;-84
2023/01/15 03:28:52;;;;;;;2.20;2.00;;;8.50;1.00;;;;;;5018560;28;20958;-84
2023/01/15 03:31:18;;;;;;;2.83;2.22;;;8.50;1.00;;;;;;5017938;28;20480;-84
2023/01/15 03:33:45;;;;;;;1.80;1.50;;;8.70;1.00;;;;;;5016613;28;20228;-83
2023/01/15 03:36:12;;;;;;;2.00;1.88;;;8.50;1.00;;;;;;5017669;28;20452;-84
2023/01/15 03:38:40;;;;;;;2.03;1.27;;;8.40;1.00;;;;;;5018865;28;20212;-84
2023/01/15 03:41:15;;;;;;;1.80;1.70;;;8.40;1.00;;;;;;5021123;28;20450;-84
2023/01/15 03:43:51;;;;;;;1.90;1.80;;;8.40;1.00;;;;;;5054733;22;20454;-85
2023/01/15 03:46:42;;;;;;;1.93;1.83;;;8.50;1.00;;;;;;5029564;28;20455;-86
2023/01/15 03:49:18;;;;;;;8.30;1.30;;;8.50;1.00;;;;;;5020363;28;20442;-86
2023/01/15 03:51:54;;;;;;;2.73;1.20;;;8.50;1.00;;;;;;5021652;28;20471;-86
2023/01/15 03:54:27;;;;;;;1.67;1.40;;;8.50;1.00;;;;;;5003175;28;20465;-86
2023/01/15 03:57:03;;;;;;;1.97;1.37;;;8.50;1.00;;;;;;5000452;28;20739;-86
2023/01/15 03:59:35;;;;;;;1.37;1.27;;;8.50;1.00;;;;;;4999292;28;20410;-86
2023/01/15 04:02:05;;;;;;;1.47;1.37;;;8.80;1.00;;;;;;5007721;28;20439;-85
2023/01/15 04:04:33;;;;;;;1.60;0.97;;;8.50;1.00;;;;;;5014350;28;20441;-86
2023/01/15 04:07:02;;;;;;;1.93;1.40;;;8.50;1.00;;;;;;5015248;28;20519;-86
2023/01/15 04:09:29;;;;;;;1.30;1.20;;;8.50;1.00;;;;;;5017531;28;20452;-85
2023/01/15 04:11:59;;;;;;;1.53;1.43;;;8.60;1.00;;;;;;5016582;28;20552;-85
2023/01/15 04:14:26;;;;;;;2.10;1.90;;;8.50;1.00;;;;;;5015746;28;20448;-85
2023/01/15 04:16:53;;;;;;;1.97;1.87;;;8.50;1.00;;;;;;5013842;28;20475;-86
2023/01/15 04:19:22;;;;;;;1.87;1.77;;;8.60;1.00;;;;;;5007624;28;20498;-85
2023/01/15 04:21:48;;;;;;;1.70;1.30;;;8.60;1.00;;;;;;5009930;28;20441;-85
2023/01/15 04:24:15;;;;;;;0.90;0.80;;;8.20;22.50;;;;;;5014059;28;20827;-83
2023/01/15 04:26:42;;;;;;;1.00;0.90;;;8.10;1.00;;;;;;5014968;28;20468;-86
2023/01/15 04:29:09;;;;;;;1.13;1.03;;;7.90;1.00;;;;;;5016043;28;20454;-84
2023/01/15 04:31:35;;;;;;;1.47;1.37;;;7.80;1.00;;;;;;5011920;28;20490;-85
2023/01/15 04:34:02;;;;;;;1.00;0.90;;;7.60;1.00;;;;;;5005464;28;20510;-85
2023/01/15 04:36:34;;;;;;;1.33;1.23;;;7.50;1.00;;;;;;5007493;28;20227;-85
2023/01/15 04:39:01;;;;;;;1.20;1.10;;;7.30;1.00;;;;;;5018442;28;20193;-84
2023/01/15 04:44:12;;;;;;;1.17;1.08;;;7.20;1.00;;;;;;5015841;28;20227;-85
2023/01/15 04:46:40;;;;;;;3.65;1.25;;;7.20;1.00;;;;;;5008726;28;20221;-84
2023/01/15 04:49:09;;;;;;;3.05;0.95;;;7.00;1.00;;;;;;5008563;28;20205;-85
2023/01/15 04:51:38;;;;;;;1.25;1.02;;;6.80;1.00;;;;;;5004094;28;20205;-85
2023/01/15 04:54:06;;;;;;;3.03;0.80;;;6.60;1.00;;;;;;5003703;28;20248;-85
2023/01/15 04:56:37;;;;;;;0.90;0.90;;;6.40;1.00;;;;;;5008297;28;20213;-83
2023/01/15 04:59:04;;;;;;;0.90;0.90;;;6.50;1.00;;;;;;5020273;28;20265;-83
2023/01/15 05:01:31;;;;;;;1.23;1.13;;;6.40;1.00;;;;;;5017617;28;20221;-83
2023/01/15 05:03:58;;;;;;;1.20;1.10;;;6.40;1.00;;;;;;5016756;28;20249;-82
2023/01/15 05:06:25;;;;;;;2.05;1.00;;;6.40;1.00;;;;;;5010011;28;20220;-87
2023/01/15 05:08:53;;;;;;;3.55;1.02;;;6.40;1.00;;;;;;5006348;28;20237;-84
2023/01/15 05:11:20;;;;;;;2.03;1.13;;;6.10;1.00;;;;;;5002916;28;20714;-84
2023/01/15 05:13:47;;;;;;;1.83;1.25;;;6.10;99.90;;;;;;5003120;28;20229;-86
2023/01/15 05:16:16;;;;;;;1.40;1.30;;;6.20;99.90;;;;;;5003215;28;20288;-86
2023/01/15 05:18:44;;;;;;;1.30;1.20;;;6.20;99.90;;;;;;5006496;28;20244;-85
2023/01/15 05:21:17;;;;;;;6.03;1.70;;;6.20;99.90;;;;;;5005430;28;20209;-85
2023/01/15 05:23:44;;;;;;;1.38;1.27;;;6.20;99.90;;;;;;5007808;28;20229;-87
2023/01/15 05:26:13;;;;;;;6.78;1.63;;;6.10;99.90;;;;;;5004384;28;20236;-86
2023/01/15 05:28:40;;;;;;;1.20;1.10;;;6.10;99.90;;;;;;5006288;28;20591;-84
2023/01/15 05:31:08;;;;;;;3.30;1.40;;;6.20;99.90;;;;;;5011076;28;20231;-83
2023/01/15 05:33:35;;;;;;;2.88;1.60;;;6.10;99.90;;;;;;5013987;28;20276;-84
2023/01/15 05:36:03;;;;;;;3.63;1.38;;;6.10;99.90;;;;;;5007905;28;20319;-86
2023/01/15 05:38:30;;;;;;;1.15;0.93;;;6.00;99.90;;;;;;5004506;28;20206;-85
2023/01/15 05:40:57;;;;;;;9.18;2.80;;;6.00;99.90;;;;;;5005607;28;20269;-86
2023/01/15 05:43:25;;;;;;;5.95;1.80;;;6.00;99.90;;;;;;5004770;28;20229;-85
2023/01/15 05:45:52;;;;;;;2.50;2.10;;;6.00;99.90;;;;;;5006801;28;20265;-83
2023/01/15 05:48:19;;;;;;;6.40;4.38;;;6.00;99.90;;;;;;5020729;28;20225;-83
2023/01/15 05:50:46;;;;;;;2.17;1.45;;;6.00;99.90;;;;;;5013362;28;20297;-84
2023/01/15 05:53:12;;;;;;;3.25;1.73;;;6.00;99.90;;;;;;5003851;28;20224;-85
2023/01/15 05:55:39;;;;;;;1.40;1.30;;;5.80;99.90;;;;;;5008778;28;20233;-86
2023/01/15 05:58:07;;;;;;;2.35;1.70;;;6.00;99.90;;;;;;5011234;28;20212;-85
2023/01/15 06:00:35;;;;;;;2.28;1.60;;;6.00;99.90;;;;;;5008441;28;20201;-86
2023/01/15 06:03:02;;;;;;;1.50;1.08;;;5.80;99.90;;;;;;5013352;28;20248;-84
2023/01/15 06:05:28;;;;;;;2.75;1.10;;;6.00;99.90;;;;;;5015883;28;20241;-84
2023/01/15 06:07:55;;;;;;;2.20;2.00;;;5.90;99.90;;;;;;5011741;28;20742;-87
2023/01/15 06:10:22;;;;;;;3.35;1.52;;;5.50;99.90;;;;;;5012236;28;20235;-82
2023/01/15 06:12:49;;;;;;;1.17;1.00;;;6.00;99.90;;;;;;5014267;28;20256;-84
2023/01/15 06:15:16;;;;;;;1.30;1.20;;;6.00;99.90;;;;;;5014335;28;20264;-86
2023/01/15 06:17:44;;;;;;;2.13;1.20;;;6.00;99.90;;;;;;5010891;28;20236;-84
2023/01/15 06:20:12;;;;;;;2.47;1.40;;;6.00;99.90;;;;;;5007590;28;20220;-84
2023/01/15 06:22:38;;;;;;;2.58;1.10;;;6.00;99.90;;;;;;5004542;28;20225;-85
2023/01/15 06:25:06;;;;;;;0.90;0.80;;;5.90;99.90;;;;;;5003462;28;20296;-87
2023/01/15 06:27:33;;;;;;;3.85;1.70;;;5.60;99.90;;;;;;5002175;28;20209;-86
2023/01/15 06:30:00;;;;;;;4.07;1.80;;;6.00;99.90;;;;;;5002239;28;20232;-86
2023/01/15 06:32:26;;;;;;;1.63;1.40;;;6.10;99.90;;;;;;5001750;28;20221;-86
2023/01/15 06:34:55;;;;;;;1.10;1.10;;;6.10;99.90;;;;;;5002276;28;20268;-86
2023/01/15 06:37:21;;;;;;;1.20;1.10;;;6.20;99.90;;;;;;5002968;28;20215;-85
2023/01/15 06:39:48;;;;;;;1.40;1.30;;;6.10;99.90;;;;;;5018472;28;20208;-82
2023/01/15 06:47:44;;;;;;;1.20;1.10;;;6.00;99.90;;;;;;5005157;28;20220;-85
2023/01/15 06:50:13;;;;;;;1.50;1.40;;;6.00;99.90;;;;;;5001402;28;20208;-84
2023/01/15 06:52:40;;;;;;;1.77;1.20;;;6.00;99.90;;;;;;5001064;28;20580;-86
2023/01/15 06:55:07;;;;;;;1.75;1.40;;;6.00;99.90;;;;;;5000932;28;20201;-86
2023/01/15 06:57:34;;;;;;;1.02;1.02;;;6.00;99.90;;;;;;5000492;28;20205;-85
2023/01/15 07:00:01;;;;;;;1.25;1.15;;;6.00;99.90;;;;;;5001224;28;20231;-85
2023/01/15 07:02:28;;;;;;;1.98;1.20;;;5.90;99.90;;;;;;5000833;28;20235;-85
2023/01/15 07:04:54;;;;;;;2.28;1.33;;;6.00;99.90;;;;;;5001586;28;20224;-85
2023/01/15 07:07:23;;;;;;;1.20;1.10;;;5.90;99.90;;;;;;5001567;28;20205;-86
2023/01/15 07:09:50;;;;;;;2.10;1.30;;;6.00;99.90;;;;;;5000053;28;20671;-86
2023/01/15 07:12:17;;;;;;;5.03;2.30;;;6.00;99.90;;;;;;4999703;28;20221;-85
2023/01/15 07:14:44;;;;;;;3.35;1.75;;;6.70;99.90;;;;;;5000708;28;20209;-86
2023/01/15 07:17:11;;;;;;;4.32;1.52;;;6.00;99.90;;;;;;5000422;28;20215;-85
2023/01/15 07:19:38;;;;;;;1.40;1.30;;;5.90;99.90;;;;;;5001707;28;20650;-85
2023/01/15 07:22:05;;;;;;;3.00;2.00;;;5.80;99.90;;;;;;5002263;28;20215;-85
2023/01/15 07:24:34;;;;;;;3.72;2.58;;;5.90;99.90;;;;;;5000468;28;20567;-85
2023/01/15 07:27:01;;;;;;;2.90;2.63;;;5.80;99.90;;;;;;5000171;28;20232;-84
2023/01/15 07:29:28;;;;;;;1.83;1.63;;;5.80;99.90;;;;;;5000196;28;20237;-83
2023/01/15 07:31:56;;;;;;;2.95;2.25;;;6.00;99.90;;;;;;5000305;28;20215;-86
2023/01/15 07:34:23;;;;;;;2.03;1.90;;;5.80;99.90;;;;;;5000338;28;20288;-86
2023/01/15 07:36:50;;;;;;;2.15;1.95;;;5.90;99.90;;;;;;4998982;28;20209;-86
2023/01/15 07:39:16;;;;;;;1.90;1.40;;;5.50;99.90;;;;;;4999661;28;20268;-86
2023/01/15 07:50:04;;;;;;;4.40;1.95;;;5.90;99.90;;;;;;5012173;28;20184;-85
2023/01/15 07:52:30;;;;;;;2.55;1.42;;;5.90;99.90;;;;;;5010344;28;20221;-84
2023/01/15 07:54:57;;;;;;;1.40;1.30;;;5.90;99.90;;;;;;5006620;28;20232;-85
2023/01/15 07:57:25;;;;;;;1.65;1.55;;;5.90;99.90;;;;;;5005143;28;20279;-87
2023/01/15 07:59:52;;;;;;;2.88;1.70;;;5.90;99.90;;;;;;5004025;28;20638;-85
2023/01/15 08:02:19;;;;;;;1.75;1.45;;;5.80;99.90;;;;;;5003996;28;20667;-85
2023/01/15 08:04:47;;;;;;;3.25;1.30;;;5.80;99.90;;;;;;5003795;28;20201;-85
2023/01/15 08:07:14;;;;;;;5.47;1.92;;;5.90;99.90;;;;;;5004512;28;20259;-85
2023/01/15 08:09:41;;;;;;;3.80;2.00;;;5.90;99.90;;;;;;5004279;28;20215;-85
2023/01/15 08:15:15;;;;;;;1.33;1.23;;;5.90;99.90;;;;;;5004313;28;20260;-85
2023/01/15 08:17:43;;;;;;;4.28;1.42;;;5.90;99.90;;;;;;5004349;28;20197;-85
2023/01/15 08:20:13;;;;;;;1.50;1.40;;;5.80;99.90;;;;;;5007737;28;20711;-85
2023/01/15 08:22:40;;;;;;;1.40;1.30;;;5.90;99.90;;;;;;5006907;28;20296;-85
2023/01/15 08:25:08;;;;;;;2.08;1.33;;;5.90;99.90;;;;;;5003804;28;20209;-85
2023/01/15 08:27:35;;;;;;;2.05;1.40;;;5.90;99.90;;;;;;5004247;28;20209;-85
2023/01/15 08:30:04;;;;;;;2.00;1.42;;;5.90;99.90;;;;;;5000168;28;20205;-84
2023/01/15 08:32:31;;;;;;;1.33;0.95;;;5.90;99.90;;;;;;5010457;28;20304;-84
2023/01/15 08:34:58;;;;;;;1.00;0.90;;;5.90;99.90;;;;;;5002443;28;20269;-84
2023/01/15 08:37:25;;;;;;;1.17;1.08;;;5.90;99.90;;;;;;5003205;28;20268;-85
2023/01/15 08:39:52;;;;;;;1.88;1.73;;;5.90;99.90;;;;;;5003476;28;20201;-84
2023/01/15 08:42:19;;;;;;;1.70;1.50;;;5.90;99.90;;;;;;5004518;28;20233;-84
2023/01/15 08:44:46;;;;;;;1.35;1.25;;;5.90;99.90;;;;;;5008043;28;20189;-84
2023/01/15 08:47:15;;;;;;;1.90;1.75;;;5.90;99.90;;;;;;5004031;28;20377;-85
2023/01/15 08:49:42;;;;;;;1.42;1.10;;;5.90;99.90;;;;;;5004616;28;20277;-85
2023/01/15 08:52:09;;;;;;;4.45;1.55;;;6.00;99.90;;;;;;5003416;28;20579;-87
2023/01/15 08:54:36;;;;;;;1.55;1.45;;;;;;;;;;5011094;28;20289;-84
2023/01/15 08:57:03;;;;;;;1.88;1.35;;;6.00;99.90;;;;;;5020862;28;20186;-83
2023/01/15 08:59:30;;;;;;;2.10;1.90;;;6.00;99.90;;;;;;5019253;28;20244;-85
2023/01/15 09:01:57;;;;;;;2.65;1.80;;;6.20;99.90;;;;;;5020094;28;20224;-85
2023/01/15 09:04:25;;;;;;;1.73;1.63;;;6.10;58.20;;;;;;5014618;28;20320;-86
2023/01/15 09:06:52;;;;;;;2.63;2.13;;;6.20;99.30;;;;;;5012224;28;20228;-86
2023/01/15 09:09:19;;;;;;;1.75;1.63;;;6.10;1.00;;;;;;5009273;28;20252;-86
2023/01/15 09:11:46;;;;;;;1.60;1.50;;;6.20;1.00;;;;;;5019231;28;20264;-84
2023/01/15 09:14:14;;;;;;;1.95;1.40;;;6.10;1.00;;;;;;5019488;28;20205;-86
2023/01/15 09:16:41;;;;;;;2.55;1.58;;;6.10;1.00;;;;;;5019314;28;20264;-84
2023/01/15 09:19:09;;;;;;;2.30;1.90;;;6.10;1.00;;;;;;5019108;28;20239;-84
2023/01/15 09:21:38;;;;;;;4.30;2.00;;;6.20;1.00;;;;;;5018853;28;20206;-84
2023/01/15 09:24:05;;;;;;;3.15;1.42;;;6.10;1.00;;;;;;5018810;28;20252;-84
2023/01/15 09:26:34;;;;;;;2.10;1.67;;;6.20;1.00;;;;;;5020333;28;20189;-83
2023/01/15 09:29:02;;;;;;;1.92;1.63;;;6.20;1.00;;;;;;5020329;28;20186;-84
2023/01/15 09:31:29;;;;;;;4.50;1.27;;;6.20;1.00;;;;;;5017284;28;20205;-85
2023/01/15 09:33:56;;;;;;;2.05;1.92;;;6.20;1.00;;;;;;5009840;28;20339;-85
2023/01/15 09:36:26;;;;;;;2.53;2.25;;;6.30;1.00;;;;;;5005421;28;20305;-85
2023/01/15 09:38:55;;;;;;;5.60;1.90;;;6.40;1.00;;;;;;5004412;28;20215;-85
2023/01/15 09:44:23;;;;;;;3.20;1.92;;;6.30;1.00;;;;;;5053285;22;20243;-83
2023/01/15 09:47:01;;;;;;;2.78;1.50;;;6.30;4.60;;;;;;5037417;28;20249;-85
2023/01/15 09:49:43;;;;;;;2.70;1.65;;;6.40;1.00;;;;;;5038500;28;20188;-84
2023/01/15 09:52:22;;;;;;;2.65;1.42;;;6.30;1.00;;;;;;5026522;28;20232;-84
2023/01/15 09:54:57;;;;;;;2.65;2.30;;;6.40;1.00;;;;;;5025972;28;20249;-84
2023/01/15 09:57:25;;;;;;;2.00;1.80;;;6.40;1.00;;;;;;5026067;28;20199;-84
2023/01/15 09:59:59;;;;;;;2.00;1.75;;;6.50;1.00;;;;;;5026378;28;20326;-85
2023/01/15 10:02:32;;;;;;;2.28;2.13;;;6.50;1.00;;;;;;5027905;28;20281;-84
2023/01/15 10:05:04;;;;;;;1.70;1.60;;;6.50;1.00;;;;;;5028618;28;20226;-85
2023/01/15 10:07:41;;;;;;;1.63;1.52;;;6.50;1.00;;;;;;5027277;28;20200;-84
2023/01/15 10:10:12;;;;;;;1.42;1.33;;;6.50;1.00;;;;;;5026673;28;20208;-84
2023/01/15 10:12:41;;;;;;;1.45;1.35;;;6.60;1.00;;;;;;5027767;28;20331;-84
2023/01/15 10:15:27;;;;;;;2.50;2.40;;;6.70;1.00;;;;;;5022284;28;20211;-84
2023/01/15 10:17:56;;;;;;;3.05;2.17;;;6.70;99.90;;;;;;5020282;28;20204;-84
2023/01/15 10:20:43;;;;;;;1.30;1.20;;;6.70;99.90;;;;;;5032256;28;20268;-84
2023/01/15 10:23:24;;;;;;;1.67;1.55;;;6.70;99.90;;;;;;5035082;28;20295;-83
2023/01/15 10:25:58;;;;;;;3.38;1.98;;;6.80;99.90;;;;;;5020067;28;20193;-84
2023/01/15 10:28:28;;;;;;;1.52;1.42;;;6.80;99.90;;;;;;5021245;28;20199;-84
2023/01/15 10:30:56;;;;;;;1.92;1.40;;;7.60;99.90;;;;;;5022737;28;20651;-84
2023/01/15 10:33:46;;;;;;;2.47;1.40;;;6.80;77.90;;;;;;5021010;28;20561;-84
2023/01/15 10:36:17;;;;;;;1.60;1.50;;;6.80;99.90;;;;;;5024805;28;20482;-84
2023/01/15 10:38:52;;;;;;;1.70;1.60;;;6.50;99.90;;;;;;5020762;28;20189;-85
2023/01/15 10:41:41;;;;;;;1.40;1.27;;;6.90;85.90;;;;;;5020696;28;20521;-84
2023/01/15 10:44:14;;;;;;;1.90;1.33;;;6.90;97.60;;;;;;5019469;28;20486;-84
2023/01/15 10:46:49;;;;;;;3.17;2.10;;;7.00;99.90;;;;;;5021437;28;20651;-84
2023/01/15 10:49:18;;;;;;;1.83;1.73;;;7.00;99.90;;;;;;5021054;28;20628;-84
2023/01/15 10:51:46;;;;;;;1.95;1.80;;;7.00;99.90;;;;;;5022646;28;20228;-84
2023/01/15 10:54:22;;;;;;;3.45;1.70;;;7.00;89.30;;;;;;5020621;28;20217;-85
2023/01/15 10:57:00;;;;;;;3.10;2.38;;;7.30;99.90;;;;;;5022044;28;20243;-84
2023/01/15 10:59:39;;;;;;;1.92;1.60;;;7.10;95.80;;;;;;5022817;28;20185;-84
2023/01/15 11:02:23;;;;;;;8.07;1.70;;;7.30;1.00;;;;;;5022048;28;20200;-85
2023/01/15 11:04:49;;;;;;;2.33;2.13;;;7.30;1.00;;;;;;5022402;28;20695;-84
2023/01/15 11:07:18;;;;;;;1.60;1.50;;;7.40;1.00;;;;;;5024671;28;20228;-83
2023/01/15 11:09:45;;;;;;;2.05;1.45;;;7.00;1.00;;;;;;5020092;28;20440;-84
2023/01/15 11:21:00;;;;;;;4.93;1.67;;;7.30;99.90;;;;;;5020892;28;20462;-84
2023/01/15 11:23:27;;;;;;;3.00;2.60;;;7.30;99.90;;;;;;5021338;28;20228;-84
2023/01/15 11:25:56;;;;;;;2.10;2.00;;;7.30;99.90;;;;;;5026017;28;20432;-83
2023/01/15 11:28:39;;;;;;;1.27;1.17;;;7.30;99.90;;;;;;5026658;28;20738;-84
2023/01/15 11:31:06;;;;;;;2.70;2.08;;;7.30;18.00;;;;;;5027797;28;20247;-84
2023/01/15 11:33:33;;;;;;;1.77;1.65;;;7.30;1.00;;;;;;5026025;28;20220;-83
2023/01/15 11:36:02;;;;;;;1.70;1.60;;;7.50;70.20;;;;;;5026248;28;20208;-84
2023/01/15 11:38:30;;;;;;;1.60;1.50;;;7.30;1.00;;;;;;5023494;28;20288;-84
2023/01/15 11:40:59;;;;;;;1.60;1.50;;;7.30;1.00;;;;;;5023808;28;20295;-84
2023/01/15 11:52:07;;;;;;;2.47;2.20;;;7.30;1.00;;;;;;5025028;28;20183;-84
2023/01/15 11:54:39;;;;;;;1.67;1.58;;;7.40;1.00;;;;;;5037359;28;20184;-84
2023/01/15 11:57:06;;;;;;;1.30;1.20;;;7.40;1.00;;;;;;5037531;28;20204;-84
2023/01/15 11:59:33;;;;;;;2.85;1.45;;;7.50;1.00;;;;;;5036035;28;20465;-84
2023/01/15 12:02:04;;;;;;;3.22;1.45;;;7.30;99.90;;;;;;5023851;28;20446;-85
2023/01/15 12:04:36;;;;;;;1.63;1.52;;;7.40;1.00;;;;;;5023120;28;20515;-85
2023/01/15 12:07:06;;;;;;;3.50;1.90;;;7.40;99.90;;;;;;5021004;28;20188;-84
2023/01/15 12:09:49;;;;;;;1.80;1.63;;;7.40;99.90;;;;;;5020609;28;20454;-84
2023/01/15 12:12:25;;;;;;;1.40;1.30;;;7.30;99.90;;;;;;5020278;28;20447;-83
2023/01/15 12:15:10;;;;;;;1.70;1.60;;;7.30;99.90;;;;;;5020768;28;20418;-84
2023/01/15 12:17:53;;;;;;;2.17;1.40;;;7.10;1.00;;;;;;5019853;28;20423;-84
2023/01/15 12:20:26;;;;;;;1.70;1.57;;;7.30;99.90;;;;;;5019458;28;20783;-84
2023/01/15 12:23:18;;;;;;;3.45;1.80;;;7.20;1.00;;;;;;5020783;28;20454;-84
2023/01/15 12:25:54;;;;;;;1.95;1.85;;;7.40;99.90;;;;;;5018334;28;20642;-84
2023/01/15 12:28:26;;;;;;;1.65;1.45;;;7.40;1.00;;;;;;5017454;28;20621;-84
2023/01/15 12:31:01;;;;;;;2.65;1.50;;;7.50;99.90;;;;;;5019204;28;20189;-84
2023/01/15 12:33:45;;;;;;;3.25;2.53;;;7.20;1.00;;;;;;5022820;28;20230;-84
2023/01/15 12:36:18;;;;;;;3.33;2.30;;;7.30;99.90;;;;;;5024993;28;20189;-83
2023/01/15 12:38:50;;;;;;;1.80;1.70;;;7.20;1.00;;;;;;5023743;28;20220;-83
2023/01/15 12:41:23;;;;;;;4.70;2.00;;;7.30;99.90;;;;;;5024510;28;20281;-84
2023/01/15 12:46:44;;;;;;;2.75;1.40;;;8.40;1.00;;;;;;5025008;28;20582;-84
2023/01/15 12:49:19;;;;;;;2.47;1.90;;;7.40;99.90;;;;;;5035381;28;20216;-84
2023/01/15 12:51:50;;;;;;;3.13;2.00;;;7.90;1.00;;;;;;5038460;28;20283;-84
2023/01/15 12:54:30;;;;;;;2.25;1.55;;;7.40;99.90;;;;;;5034992;28;20228;-83
2023/01/15 12:57:03;;;;;;;2.80;1.70;;;7.30;99.90;;;;;;5024312;28;20275;-83
2023/01/15 12:59:49;;;;;;;2.47;1.70;;;7.20;99.90;;;;;;5024965;28;20288;-83
2023/01/15 13:02:22;;;;;;;7.95;4.60;;;7.40;1.00;;;;;;5022599;28;20219;-83
2023/01/15 13:04:54;;;;;;;2.10;1.90;;;7.30;1.00;;;;;;5029628;28;20211;-84
2023/01/15 13:07:27;;;;;;;2.13;1.40;;;7.30;99.90;;;;;;5024979;28;20471;-84
2023/01/15 13:10:07;;;;;;;2.30;1.40;;;7.30;99.90;;;;;;5026655;28;20195;-84
2023/01/15 13:12:35;;;;;;;5.38;2.13;;;5.70;99.90;;;;;;5024680;28;20259;-85
2023/01/15 13:15:05;;;;;;;3.28;2.03;;;7.00;1.00;;;;;;5023863;28;20232;-84
2023/01/15 13:17:39;;;;;;;3.20;1.80;;;7.30;99.90;;;;;;5024699;28;20250;-83
2023/01/15 13:20:22;;;;;;;2.00;1.65;;;7.30;99.90;;;;;;5024202;28;20204;-85
2023/01/15 13:22:57;;;;;;;1.25;1.15;;;7.40;99.90;;;;;;5032580;28;20221;-85
2023/01/15 13:25:49;;;;;;;4.10;1.50;;;7.50;99.90;;;;;;5025969;28;20272;-84
2023/01/15 13:28:29;;;;;;;3.00;1.48;;;7.40;99.90;;;;;;5015551;28;20232;-84
2023/01/15 13:31:07;;;;;;;2.58;1.83;;;7.30;99.90;;;;;;5022553;28;20276;-83
2023/01/15 13:33:39;;;;;;;2.45;1.33;;;7.20;56.50;;;;;;5024751;28;20765;-84
2023/01/15 13:36:14;;;;;;;1.40;1.30;;;6.80;99.90;;;;;;5038875;28;20237;-83
2023/01/15 13:38:55;;;;;;;1.33;1.25;;;7.20;4.50;;;;;;5028029;28;20185;-84
2023/01/15 13:44:13;;;;;;;3.10;1.30;;;7.20;99.90;;;;;;5028942;28;20530;-83
2023/01/15 13:46:40;;;;;;;2.45;1.38;;;7.10;99.90;;;;;;5031265;28;20287;-84
2023/01/15 13:49:19;;;;;;;3.22;2.35;;;7.10;43.50;;;;;;5026634;28;20205;-84
2023/01/15 13:51:50;;;;;;;2.92;1.95;;;7.00;99.90;;;;;;5022652;28;20220;-84
2023/01/15 13:54:28;;;;;;;1.83;1.73;;;7.10;99.90;;;;;;5024166;28;20593;-84
2023/01/15 13:57:08;;;;;;;1.98;1.40;;;6.70;99.90;;;;;;5023726;28;20187;-84
2023/01/15 13:59:42;;;;;;;2.45;1.60;;;7.00;99.90;;;;;;5023329;28;20633;-85
2023/01/15 14:02:28;;;;;;;3.17;2.03;;;6.80;99.90;;;;;;5022723;28;20189;-83
2023/01/15 14:04:56;;;;;;;2.05;1.65;;;7.00;99.90;;;;;;5023561;28;20232;-85
2023/01/15 14:07:33;;;;;;;2.60;2.22;;;7.00;1.00;;;;;;5023525;28;20228;-85
2023/01/15 14:10:26;;;;;;;3.83;2.47;;;7.10;1.00;;;;;;5023301;28;20276;-84